createdAt,value
2023-09-23T00:00:26.543Z,68.56
2023-09-23T00:03:01.266Z,68.55
2023-09-23T00:05:34.433Z,68.66
2023-09-23T00:08:07.254Z,68.70
2023-09-23T00:10:38.326Z,68.77
2023-09-23T00:13:08.917Z,68.88
2023-09-23T00:15:43.638Z,69.08
2023-09-23T00:18:18.855Z,68.83
2023-09-23T00:20:49.895Z,68.82
2023-09-23T00:23:21.337Z,68.81
2023-09-23T00:25:52.665Z,68.70
2023-09-23T00:28:31.691Z,68.63
2023-09-23T00:31:12.219Z,68.88
2023-09-23T00:33:43.470Z,68.69
2023-09-23T00:36:15.253Z,68.69
2023-09-23T00:38:45.859Z,68.46
2023-09-23T00:41:16.590Z,68.52
2023-09-23T00:43:49.869Z,68.52
2023-09-23T00:46:24.737Z,68.44
2023-09-23T00:48:56.705Z,68.36
2023-09-23T00:51:27.292Z,68.13
2023-09-23T00:53:58.569Z,68.22
2023-09-23T00:56:32.217Z,68.39
2023-09-23T00:59:04.464Z,68.41
2023-09-23T01:01:35.078Z,68.69
2023-09-23T01:04:07.283Z,68.61
2023-09-23T01:06:38.278Z,68.65
2023-09-23T01:09:12.166Z,68.54
2023-09-23T01:11:42.642Z,68.69
2023-09-23T01:14:13.265Z,68.69
2023-09-23T01:16:44.445Z,68.71
2023-09-23T01:19:18.715Z,68.92
2023-09-23T01:21:50.806Z,68.82
2023-09-23T01:24:21.872Z,68.84
2023-09-23T01:26:53.271Z,68.73
2023-09-23T01:29:24.672Z,68.84
2023-09-23T01:32:09.156Z,68.76
2023-09-23T01:34:39.914Z,68.86
2023-09-23T01:37:10.595Z,68.83
2023-09-23T01:39:42.682Z,68.78
2023-09-23T01:42:13.642Z,68.73
2023-09-23T01:44:45.359Z,68.82
2023-09-23T01:47:17.512Z,68.74
2023-09-23T01:49:48.336Z,68.61
2023-09-23T01:52:18.907Z,68.83
2023-09-23T01:54:50.183Z,68.72
2023-09-23T01:57:20.690Z,68.73
2023-09-23T01:59:51.156Z,68.80
2023-09-23T02:02:21.825Z,68.64
2023-09-23T02:04:52.569Z,68.57
2023-09-23T02:07:23.090Z,68.61
2023-09-23T02:09:53.537Z,68.51
2023-09-23T02:12:24.549Z,68.35
2023-09-23T02:14:55.174Z,68.39
2023-09-23T02:17:27.130Z,68.46
2023-09-23T02:19:58.843Z,68.38
2023-09-23T02:22:27.803Z,68.33
2023-09-23T02:24:58.263Z,68.45
2023-09-23T02:27:28.733Z,68.24
2023-09-23T02:29:59.321Z,68.10
2023-09-23T02:32:30.106Z,68.30
2023-09-23T02:35:00.618Z,68.26
2023-09-23T02:37:31.192Z,68.13
2023-09-23T02:40:01.691Z,68.10
2023-09-23T02:42:32.174Z,68.19
2023-09-23T02:45:04.956Z,68.23
2023-09-23T02:47:35.557Z,68.17
2023-09-23T02:50:11.074Z,68.13
2023-09-23T02:52:43.331Z,68.15
2023-09-23T02:55:17.000Z,68.06
2023-09-23T02:57:52.211Z,68.12
2023-09-23T03:00:24.698Z,68.18
2023-09-23T03:02:57.881Z,68.23
2023-09-23T03:05:32.776Z,68.30
2023-09-23T03:08:04.090Z,68.39
2023-09-23T03:10:35.792Z,68.27
2023-09-23T03:13:08.676Z,68.51
2023-09-23T03:15:46.308Z,68.57
2023-09-23T03:18:18.944Z,68.68
2023-09-23T03:20:50.411Z,68.81
2023-09-23T03:23:21.727Z,68.76
2023-09-23T03:25:53.957Z,68.83
2023-09-23T03:28:23.536Z,68.76
2023-09-23T03:31:02.582Z,68.68
2023-09-23T03:33:33.354Z,68.78
2023-09-23T03:36:04.370Z,68.62
2023-09-23T03:38:34.958Z,68.60
2023-09-23T03:41:05.493Z,68.59
2023-09-23T03:43:35.982Z,68.53
2023-09-23T03:46:15.192Z,68.59
2023-09-23T03:48:46.538Z,68.50
2023-09-23T03:51:17.718Z,68.36
2023-09-23T03:53:49.704Z,68.45
2023-09-23T03:56:20.650Z,68.38
2023-09-23T03:58:51.197Z,68.56
2023-09-23T04:01:22.991Z,68.59
2023-09-23T04:03:52.268Z,68.63
2023-09-23T04:06:23.228Z,68.50
2023-09-23T04:08:56.186Z,68.24
2023-09-23T04:11:27.226Z,68.24
2023-09-23T04:13:58.106Z,68.36
2023-09-23T04:16:28.693Z,68.25
2023-09-23T04:18:59.296Z,68.28
2023-09-23T04:21:31.491Z,68.00
2023-09-23T04:24:02.765Z,68.11
2023-09-23T04:26:33.216Z,68.08
2023-09-23T04:29:03.990Z,68.01
2023-09-23T04:31:34.568Z,68.00
2023-09-23T04:34:05.165Z,68.02
2023-09-23T04:36:35.644Z,68.04
2023-09-23T04:39:07.846Z,67.95
2023-09-23T04:41:41.403Z,67.94
2023-09-23T04:44:11.913Z,68.07
2023-09-23T04:46:42.587Z,68.05
2023-09-23T04:49:13.060Z,68.29
2023-09-23T04:51:48.209Z,68.30
2023-09-23T04:54:18.718Z,68.33
2023-09-23T04:56:49.144Z,68.24
2023-09-23T04:59:19.720Z,68.27
2023-09-23T05:01:50.351Z,68.25
2023-09-23T05:04:20.924Z,68.22
2023-09-23T05:06:52.068Z,68.38
2023-09-23T05:09:21.802Z,68.46
2023-09-23T05:11:53.974Z,68.60
2023-09-23T05:14:26.411Z,68.56
2023-09-23T05:16:57.019Z,68.63
2023-09-23T05:19:28.737Z,68.79
2023-09-23T05:21:57.692Z,68.77
2023-09-23T05:24:28.837Z,69.08
2023-09-23T05:27:01.245Z,69.14
2023-09-23T05:29:31.895Z,69.05
2023-09-23T05:32:03.656Z,69.01
2023-09-23T05:34:32.622Z,69.02
2023-09-23T05:37:03.060Z,69.23
2023-09-23T05:39:35.959Z,69.09
2023-09-23T05:42:06.697Z,69.16
2023-09-23T05:44:37.271Z,69.21
2023-09-23T05:47:07.859Z,68.98
2023-09-23T05:49:40.174Z,68.81
2023-09-23T05:52:11.659Z,69.10
2023-09-23T05:54:42.105Z,69.07
2023-09-23T05:57:12.730Z,69.12
2023-09-23T05:59:43.270Z,69.12
2023-09-23T06:02:13.775Z,69.24
2023-09-23T06:04:44.249Z,69.12
2023-09-23T06:07:14.692Z,69.10
2023-09-23T06:09:47.930Z,68.95
2023-09-23T06:12:18.407Z,68.94
2023-09-23T06:14:50.339Z,68.77
2023-09-23T06:17:21.024Z,68.80
2023-09-23T06:19:52.693Z,68.82
2023-09-23T06:22:23.170Z,69.02
2023-09-23T06:24:54.453Z,68.78
2023-09-23T06:27:24.940Z,68.95
2023-09-23T06:29:55.571Z,69.00
2023-09-23T06:32:26.169Z,68.79
2023-09-23T06:34:56.990Z,69.02
2023-09-23T06:37:27.618Z,69.34
2023-09-23T06:39:58.051Z,69.39
2023-09-23T06:42:28.563Z,69.37
2023-09-23T06:45:00.246Z,69.37
2023-09-23T06:47:29.376Z,69.12
2023-09-23T06:49:59.996Z,69.07
2023-09-23T06:52:30.504Z,68.98
2023-09-23T06:55:01.474Z,68.95
2023-09-23T06:57:32.013Z,69.03
2023-09-23T07:00:02.892Z,68.96
2023-09-23T07:02:33.553Z,68.88
2023-09-23T07:05:04.495Z,69.20
2023-09-23T07:07:35.093Z,69.22
2023-09-23T07:10:06.381Z,68.82
2023-09-23T07:12:37.114Z,68.69
2023-09-23T07:15:09.591Z,68.38
2023-09-23T07:17:40.143Z,68.29
2023-09-23T07:20:13.585Z,68.11
2023-09-23T07:22:44.145Z,67.96
2023-09-23T07:25:14.856Z,67.74
2023-09-23T07:27:45.318Z,67.87
2023-09-23T07:30:18.644Z,67.78
2023-09-23T07:32:49.367Z,67.10
2023-09-23T07:35:20.314Z,67.27
2023-09-23T07:37:51.528Z,66.47
2023-09-23T07:40:22.106Z,66.74
2023-09-23T07:42:53.112Z,66.87
2023-09-23T07:45:23.922Z,66.09
2023-09-23T07:47:54.489Z,66.06
2023-09-23T07:50:25.289Z,65.98
2023-09-23T07:52:55.843Z,65.89
2023-09-23T07:55:26.403Z,65.79
2023-09-23T07:57:56.845Z,65.93
2023-09-23T08:00:28.516Z,65.52
2023-09-23T08:02:57.659Z,65.12
2023-09-23T08:05:30.129Z,65.24
2023-09-23T08:08:00.645Z,65.12
2023-09-23T08:10:32.245Z,64.86
2023-09-23T08:13:03.826Z,64.65
2023-09-23T08:15:34.310Z,64.28
2023-09-23T08:18:06.484Z,63.68
2023-09-23T08:20:37.011Z,62.72
2023-09-23T08:23:07.628Z,62.80
2023-09-23T08:25:38.111Z,62.94
2023-09-23T08:28:09.328Z,62.55
2023-09-23T08:30:39.843Z,62.53
2023-09-23T08:33:10.392Z,62.27
2023-09-23T08:35:42.835Z,61.98
2023-09-23T08:38:13.649Z,61.85
2023-09-23T08:40:46.560Z,61.68
2023-09-23T08:43:19.381Z,62.08
2023-09-23T08:45:49.909Z,61.93
2023-09-23T08:48:21.163Z,61.99
2023-09-23T08:50:54.912Z,61.93
2023-09-23T08:53:28.440Z,62.07
2023-09-23T08:55:59.768Z,62.30
2023-09-23T08:58:30.272Z,61.95
2023-09-23T09:01:01.077Z,62.04
2023-09-23T09:03:32.697Z,62.49
2023-09-23T09:06:04.545Z,62.58
2023-09-23T09:08:35.699Z,62.56
2023-09-23T09:11:06.274Z,62.56
2023-09-23T09:13:37.257Z,61.82
2023-09-23T09:16:09.773Z,61.58
2023-09-23T09:18:40.369Z,61.85
2023-09-23T09:21:10.872Z,62.28
2023-09-23T09:23:41.521Z,62.14
2023-09-23T09:26:12.233Z,61.89
2023-09-23T09:28:43.511Z,61.45
2023-09-23T09:31:15.650Z,60.94
2023-09-23T09:33:51.233Z,60.92
2023-09-23T09:36:24.776Z,60.78
2023-09-23T09:38:59.207Z,59.83
2023-09-23T09:41:36.799Z,59.71
2023-09-23T09:44:09.954Z,59.64
2023-09-23T09:46:43.081Z,59.68
2023-09-23T09:49:17.633Z,60.20
2023-09-23T09:51:49.964Z,59.89
2023-09-23T09:54:22.953Z,59.78
2023-09-23T09:56:57.212Z,59.70
2023-09-23T09:59:31.491Z,59.84
2023-09-23T10:02:05.334Z,59.87
2023-09-23T10:04:36.311Z,60.33
2023-09-23T10:07:10.468Z,60.43
2023-09-23T10:09:53.260Z,60.45
2023-09-23T10:12:27.917Z,60.53
2023-09-23T10:14:59.784Z,60.76
2023-09-23T10:17:34.862Z,60.50
2023-09-23T10:20:14.562Z,60.80
2023-09-23T10:22:54.704Z,60.67
2023-09-23T10:25:25.343Z,60.49
2023-09-23T10:28:01.702Z,60.04
2023-09-23T10:30:34.014Z,59.75
2023-09-23T10:33:06.118Z,59.62
2023-09-23T10:35:38.975Z,59.24
2023-09-23T10:38:09.473Z,58.68
2023-09-23T10:40:40.170Z,58.13
2023-09-23T10:43:10.624Z,58.26
2023-09-23T10:45:41.109Z,57.94
2023-09-23T10:48:11.693Z,57.74
2023-09-23T10:50:42.767Z,57.69
2023-09-23T10:53:13.488Z,57.50
2023-09-23T10:55:44.476Z,57.79
2023-09-23T10:58:15.349Z,58.33
2023-09-23T11:00:47.017Z,58.25
2023-09-23T11:03:18.334Z,57.36
2023-09-23T11:05:50.151Z,57.04
2023-09-23T11:08:20.571Z,57.54
2023-09-23T11:10:51.836Z,57.12
2023-09-23T11:13:22.558Z,56.85
2023-09-23T11:15:53.610Z,56.64
2023-09-23T11:18:25.187Z,57.16
2023-09-23T11:20:55.882Z,57.36
2023-09-23T11:23:31.103Z,57.46
2023-09-23T11:26:02.007Z,57.33
2023-09-23T11:28:32.642Z,56.68
2023-09-23T11:31:03.213Z,56.61
2023-09-23T11:33:34.635Z,56.42
2023-09-23T11:36:05.633Z,56.23
2023-09-23T11:38:36.380Z,56.61
2023-09-23T11:41:07.910Z,57.22
2023-09-23T11:43:38.397Z,57.03
2023-09-23T11:46:08.871Z,57.31
2023-09-23T11:48:39.375Z,56.96
2023-09-23T11:51:10.747Z,56.80
2023-09-23T11:53:42.497Z,56.68
2023-09-23T11:56:13.896Z,57.16
2023-09-23T11:58:51.648Z,57.26
2023-09-23T12:01:32.626Z,57.53
2023-09-23T12:04:03.827Z,57.30
2023-09-23T12:06:36.575Z,57.03
2023-09-23T12:09:10.452Z,57.39
2023-09-23T12:11:41.277Z,57.43
2023-09-23T12:14:12.246Z,57.30
2023-09-23T12:16:43.353Z,57.28
2023-09-23T12:19:14.999Z,57.25
2023-09-23T12:21:46.058Z,57.61
2023-09-23T12:24:16.502Z,57.57
2023-09-23T12:26:47.374Z,57.06
2023-09-23T12:29:17.946Z,56.64
2023-09-23T12:31:48.462Z,56.55
2023-09-23T12:34:19.276Z,56.29
2023-09-23T12:36:51.261Z,56.16
2023-09-23T12:39:23.418Z,55.58
2023-09-23T12:41:54.469Z,55.52
2023-09-23T12:44:25.249Z,55.37
2023-09-23T12:46:55.850Z,55.16
2023-09-23T12:49:26.824Z,55.55
2023-09-23T12:51:57.664Z,55.57
2023-09-23T12:54:28.185Z,55.54
2023-09-23T12:56:58.948Z,55.19
2023-09-23T12:59:29.748Z,55.08
2023-09-23T13:02:00.386Z,55.18
2023-09-23T13:04:30.920Z,54.77
2023-09-23T13:07:01.429Z,55.00
2023-09-23T13:09:31.954Z,55.38
2023-09-23T13:12:02.789Z,55.48
2023-09-23T13:14:33.379Z,55.70
2023-09-23T13:17:04.057Z,55.40
2023-09-23T13:19:35.324Z,55.53
2023-09-23T13:22:06.463Z,55.26
2023-09-23T13:24:37.026Z,55.37
2023-09-23T13:27:07.666Z,54.97
2023-09-23T13:29:38.241Z,55.18
2023-09-23T13:32:08.993Z,55.09
2023-09-23T13:34:39.543Z,55.21
2023-09-23T13:37:10.389Z,55.39
2023-09-23T13:39:40.901Z,55.64
2023-09-23T13:42:11.718Z,56.12
2023-09-23T13:44:43.571Z,55.94
2023-09-23T13:47:14.293Z,55.78
2023-09-23T13:49:44.918Z,55.95
2023-09-23T13:52:15.379Z,55.71
2023-09-23T13:54:45.850Z,55.51
2023-09-23T13:57:16.868Z,55.27
2023-09-23T13:59:47.391Z,55.23
2023-09-23T14:02:19.451Z,55.34
2023-09-23T14:04:50.005Z,55.70
2023-09-23T14:07:20.590Z,55.80
2023-09-23T14:09:51.110Z,55.84
2023-09-23T14:12:21.847Z,55.76
2023-09-23T14:14:52.333Z,55.51
2023-09-23T14:17:23.596Z,55.26
2023-09-23T14:19:54.609Z,55.34
2023-09-23T14:22:25.114Z,55.43
2023-09-23T14:24:55.619Z,55.64
2023-09-23T14:27:26.122Z,55.83
2023-09-23T14:29:56.646Z,55.65
2023-09-23T14:32:27.238Z,55.58
2023-09-23T14:34:57.822Z,55.44
2023-09-23T14:37:28.736Z,55.48
2023-09-23T14:39:59.657Z,55.53
2023-09-23T14:42:31.291Z,55.39
2023-09-23T14:45:01.808Z,55.94
2023-09-23T14:47:32.527Z,55.71
2023-09-23T14:50:03.589Z,55.72
2023-09-23T14:52:34.323Z,56.16
2023-09-23T14:55:06.511Z,56.35
2023-09-23T14:57:37.249Z,56.08
2023-09-23T15:00:11.011Z,55.80
2023-09-23T15:02:42.341Z,55.04
2023-09-23T15:05:13.726Z,54.73
2023-09-23T15:07:44.371Z,54.44
2023-09-23T15:10:14.844Z,54.58
2023-09-23T15:12:45.612Z,54.70
2023-09-23T15:15:16.808Z,54.75
2023-09-23T15:17:47.387Z,55.08
2023-09-23T15:20:18.238Z,54.90
2023-09-23T15:22:49.777Z,54.97
2023-09-23T15:25:20.561Z,55.25
2023-09-23T15:27:51.092Z,55.57
2023-09-23T15:30:24.075Z,55.42
2023-09-23T15:32:54.690Z,55.21
2023-09-23T15:35:25.366Z,55.19
2023-09-23T15:37:55.827Z,55.24
2023-09-23T15:40:26.371Z,54.80
2023-09-23T15:42:56.869Z,54.89
2023-09-23T15:45:28.270Z,54.76
2023-09-23T15:47:58.915Z,54.77
2023-09-23T15:50:30.257Z,54.42
2023-09-23T15:53:00.938Z,53.68
2023-09-23T15:55:31.371Z,53.62
2023-09-23T15:58:02.073Z,53.41
2023-09-23T16:00:32.792Z,53.05
2023-09-23T16:03:03.417Z,52.77
2023-09-23T16:05:34.185Z,52.90
2023-09-23T16:08:05.114Z,52.80
2023-09-23T16:10:36.167Z,52.75
2023-09-23T16:13:07.158Z,52.77
2023-09-23T16:15:37.701Z,52.97
2023-09-23T16:18:09.073Z,52.86
2023-09-23T16:20:39.927Z,53.21
2023-09-23T16:23:10.690Z,53.11
2023-09-23T16:25:41.259Z,52.82
2023-09-23T16:28:11.694Z,52.79
2023-09-23T16:30:43.188Z,52.69
2023-09-23T16:33:13.933Z,52.31
2023-09-23T16:35:44.870Z,52.48
2023-09-23T16:38:16.086Z,52.81
2023-09-23T16:40:48.984Z,52.66
2023-09-23T16:43:19.824Z,52.44
2023-09-23T16:45:51.205Z,52.64
2023-09-23T16:48:22.125Z,52.97
2023-09-23T16:50:55.055Z,52.89
2023-09-23T16:53:25.762Z,52.89
2023-09-23T16:55:56.277Z,53.12
2023-09-23T16:58:26.800Z,53.31
2023-09-23T17:00:57.326Z,53.19
2023-09-23T17:03:28.927Z,53.26
2023-09-23T17:05:58.020Z,53.41
2023-09-23T17:08:29.273Z,53.37
2023-09-23T17:11:00.252Z,53.36
2023-09-23T17:13:32.210Z,53.56
2023-09-23T17:16:03.822Z,54.16
2023-09-23T17:18:34.419Z,53.96
2023-09-23T17:21:05.528Z,54.26
2023-09-23T17:23:36.055Z,54.15
2023-09-23T17:26:06.905Z,54.24
2023-09-23T17:28:37.450Z,54.44
2023-09-23T17:31:12.855Z,54.51
2023-09-23T17:33:43.399Z,54.63
2023-09-23T17:36:13.990Z,54.69
2023-09-23T17:38:44.475Z,54.86
2023-09-23T17:41:15.268Z,54.98
2023-09-23T17:43:46.447Z,55.20
2023-09-23T17:46:17.243Z,55.55
2023-09-23T17:48:48.208Z,55.65
2023-09-23T17:51:19.044Z,55.56
2023-09-23T17:53:49.689Z,55.68
2023-09-23T17:56:20.360Z,55.97
2023-09-23T17:58:51.161Z,55.77
2023-09-23T18:01:21.744Z,55.98
2023-09-23T18:03:53.239Z,56.21
2023-09-23T18:06:24.568Z,56.16
2023-09-23T18:08:55.217Z,56.80
2023-09-23T18:11:26.204Z,57.05
2023-09-23T18:13:57.833Z,57.00
2023-09-23T18:16:28.342Z,57.04
2023-09-23T18:18:59.106Z,56.80
2023-09-23T18:21:29.812Z,56.73
2023-09-23T18:24:00.459Z,57.07
2023-09-23T18:26:31.130Z,56.78
2023-09-23T18:29:01.772Z,57.09
2023-09-23T18:31:33.799Z,57.21
2023-09-23T18:34:04.576Z,57.65
2023-09-23T18:36:35.666Z,57.50
2023-09-23T18:39:06.797Z,57.67
2023-09-23T18:41:37.422Z,57.34
2023-09-23T18:44:09.255Z,57.23
2023-09-23T18:46:38.595Z,57.64
2023-09-23T18:49:09.249Z,57.65
2023-09-23T18:51:39.844Z,57.76
2023-09-23T18:54:10.494Z,57.87
2023-09-23T18:56:40.993Z,57.88
2023-09-23T18:59:11.660Z,57.69
2023-09-23T19:01:42.385Z,57.90
2023-09-23T19:04:13.011Z,57.99
2023-09-23T19:06:43.721Z,57.95
2023-09-23T19:09:14.554Z,57.80
2023-09-23T19:11:45.098Z,58.03
2023-09-23T19:14:15.996Z,58.36
2023-09-23T19:16:46.585Z,58.12
2023-09-23T19:19:18.634Z,58.20
2023-09-23T19:21:49.086Z,58.35
2023-09-23T19:24:19.814Z,58.46
2023-09-23T19:26:57.233Z,58.44
2023-09-23T19:29:26.957Z,58.39
2023-09-23T19:32:00.109Z,58.29
2023-09-23T19:34:31.019Z,58.15
2023-09-23T19:37:01.991Z,58.45
2023-09-23T19:39:34.069Z,58.55
2023-09-23T19:42:04.620Z,58.71
2023-09-23T19:44:35.211Z,58.80
2023-09-23T19:47:07.657Z,58.89
2023-09-23T19:49:38.936Z,58.87
2023-09-23T19:52:10.130Z,58.73
2023-09-23T19:54:41.358Z,58.75
2023-09-23T19:57:11.920Z,58.79
2023-09-23T19:59:42.383Z,58.60
2023-09-23T20:02:13.008Z,58.84
2023-09-23T20:04:47.104Z,58.90
2023-09-23T20:07:17.628Z,59.01
2023-09-23T20:09:48.163Z,59.04
2023-09-23T20:12:18.915Z,59.19
2023-09-23T20:14:49.501Z,58.87
2023-09-23T20:17:19.996Z,58.94
2023-09-23T20:19:52.256Z,58.96
2023-09-23T20:22:22.693Z,59.03
2023-09-23T20:24:53.208Z,59.07
2023-09-23T20:27:25.517Z,59.07
2023-09-23T20:30:06.363Z,59.16
2023-09-23T20:32:39.813Z,59.11
2023-09-23T20:35:12.869Z,58.97
2023-09-23T20:37:44.616Z,59.34
2023-09-23T20:40:16.988Z,59.64
2023-09-23T20:42:47.970Z,59.90
2023-09-23T20:45:18.758Z,60.05
2023-09-23T20:47:49.376Z,60.09
2023-09-23T20:50:20.185Z,59.82
2023-09-23T20:52:50.836Z,59.61
2023-09-23T20:55:21.405Z,59.51
2023-09-23T20:57:51.909Z,59.86
2023-09-23T21:00:23.373Z,59.41
2023-09-23T21:02:54.061Z,59.07
2023-09-23T21:05:24.864Z,59.25
2023-09-23T21:07:55.515Z,59.11
2023-09-23T21:10:26.369Z,59.13
2023-09-23T21:12:57.408Z,59.38
2023-09-23T21:15:29.478Z,59.21
2023-09-23T21:18:02.397Z,59.12
2023-09-23T21:20:33.302Z,59.13
2023-09-23T21:23:03.916Z,59.19
2023-09-23T21:25:34.348Z,59.25
2023-09-23T21:28:05.456Z,59.65
2023-09-23T21:30:37.865Z,59.61
2023-09-23T21:33:08.553Z,59.49
2023-09-23T21:35:40.679Z,59.44
2023-09-23T21:38:11.812Z,59.38
2023-09-23T21:40:45.342Z,59.58
2023-09-23T21:43:15.810Z,59.54
2023-09-23T21:45:46.421Z,59.86
2023-09-23T21:48:17.288Z,60.01
2023-09-23T21:50:55.740Z,59.89
2023-09-23T21:53:26.455Z,59.73
2023-09-23T21:55:59.691Z,59.64
2023-09-23T21:58:30.554Z,60.09
2023-09-23T22:01:01.576Z,60.05
2023-09-23T22:03:32.568Z,60.01
2023-09-23T22:06:06.549Z,60.12
2023-09-23T22:08:37.425Z,59.94
2023-09-23T22:11:07.960Z,60.23
2023-09-23T22:13:39.771Z,60.40
2023-09-23T22:16:09.121Z,60.49
2023-09-23T22:18:41.211Z,60.40
2023-09-23T22:21:11.787Z,60.27
2023-09-23T22:23:42.352Z,60.31
2023-09-23T22:26:16.858Z,60.15
2023-09-23T22:28:47.403Z,60.10
2023-09-23T22:31:19.230Z,59.94
2023-09-23T22:33:48.645Z,60.15
2023-09-23T22:36:20.171Z,60.19
2023-09-23T22:38:50.710Z,60.23
2023-09-23T22:41:21.851Z,60.37
2023-09-23T22:43:52.304Z,60.37
2023-09-23T22:46:22.789Z,60.25
2023-09-23T22:48:54.996Z,60.44
2023-09-23T22:51:26.258Z,60.50
2023-09-23T22:53:57.411Z,60.23
2023-09-23T22:56:28.184Z,60.17
2023-09-23T22:58:58.685Z,60.36
2023-09-23T23:01:29.165Z,60.51
2023-09-23T23:04:01.346Z,60.58
2023-09-23T23:06:32.252Z,60.57
2023-09-23T23:09:02.845Z,60.59
2023-09-23T23:11:33.323Z,60.81
2023-09-23T23:14:05.490Z,60.89
2023-09-23T23:16:38.935Z,61.00
2023-09-23T23:19:12.298Z,60.96
2023-09-23T23:21:42.744Z,60.94
2023-09-23T23:24:13.606Z,61.11
2023-09-23T23:26:44.181Z,60.97
2023-09-23T23:29:17.613Z,60.96
2023-09-23T23:31:50.211Z,61.01
2023-09-23T23:34:20.727Z,61.19
2023-09-23T23:36:51.181Z,61.02
2023-09-23T23:39:21.660Z,60.88
2023-09-23T23:41:52.122Z,60.71
2023-09-23T23:44:24.054Z,60.89
2023-09-23T23:46:54.865Z,61.19
2023-09-23T23:49:25.855Z,61.14
2023-09-23T23:51:56.938Z,61.06
2023-09-23T23:54:28.837Z,61.18
2023-09-23T23:56:59.862Z,61.17
2023-09-23T23:59:30.363Z,61.16
